sensor_id;sensor_type;location;lat;lon;timestamp;P1;durP1;ratioP1;P2;durP2;ratioP2
11447;SDS011;43755;49.736;8.734;2023-03-01T00:01:38;14.25;;;10.55;;
11447;SDS011;43755;49.736;8.734;2023-03-01T00:03:40;12.88;;;10.15;;
11447;SDS011;43755;49.736;8.734;2023-03-01T00:05:43;13.38;;;10.63;;
11447;SDS011;43755;49.736;8.734;2023-03-01T00:07:45;12.57;;;10.07;;
11447;SDS011;43755;49.736;8.734;2023-03-01T00:09:46;14.07;;;10.77;;
11447;SDS011;43755;49.736;8.734;2023-03-01T00:11:50;13.05;;;10.48;;
11447;SDS011;43755;49.736;8.734;2023-03-01T00:13:52;14.35;;;10.93;;
11447;SDS011;43755;49.736;8.734;2023-03-01T00:15:55;14.88;;;10.55;;
11447;SDS011;43755;49.736;8.734;2023-03-01T00:17:56;14.68;;;11.18;;
11447;SDS011;43755;49.736;8.734;2023-03-01T00:19:58;13.30;;;10.48;;
11447;SDS011;43755;49.736;8.734;2023-03-01T00:21:59;14.52;;;10.85;;
11447;SDS011;43755;49.736;8.734;2023-03-01T00:24:00;15.50;;;11.27;;
11447;SDS011;43755;49.736;8.734;2023-03-01T00:26:05;15.50;;;11.20;;
11447;SDS011;43755;49.736;8.734;2023-03-01T00:28:09;15.18;;;11.35;;
11447;SDS011;43755;49.736;8.734;2023-03-01T00:30:11;13.77;;;10.55;;
11447;SDS011;43755;49.736;8.734;2023-03-01T00:32:12;13.32;;;10.98;;
11447;SDS011;43755;49.736;8.734;2023-03-01T00:34:14;14.80;;;10.70;;
11447;SDS011;43755;49.736;8.734;2023-03-01T00:36:15;14.68;;;10.43;;
11447;SDS011;43755;49.736;8.734;2023-03-01T00:38:17;13.05;;;10.40;;
11447;SDS011;43755;49.736;8.734;2023-03-01T00:40:18;14.13;;;11.27;;
11447;SDS011;43755;49.736;8.734;2023-03-01T00:42:19;15.55;;;11.30;;
11447;SDS011;43755;49.736;8.734;2023-03-01T00:44:23;15.77;;;11.63;;
11447;SDS011;43755;49.736;8.734;2023-03-01T00:46:25;16.35;;;11.10;;
11447;SDS011;43755;49.736;8.734;2023-03-01T00:48:27;16.13;;;11.77;;
11447;SDS011;43755;49.736;8.734;2023-03-01T00:50:29;16.42;;;11.32;;
11447;SDS011;43755;49.736;8.734;2023-03-01T00:52:30;15.57;;;11.07;;
11447;SDS011;43755;49.736;8.734;2023-03-01T00:54:31;14.25;;;10.98;;
11447;SDS011;43755;49.736;8.734;2023-03-01T00:56:33;12.90;;;10.30;;
11447;SDS011;43755;49.736;8.734;2023-03-01T00:58:35;16.27;;;11.70;;
11447;SDS011;43755;49.736;8.734;2023-03-01T01:00:37;13.27;;;11.18;;
11447;SDS011;43755;49.736;8.734;2023-03-01T01:02:38;12.75;;;10.88;;
11447;SDS011;43755;49.736;8.734;2023-03-01T01:04:40;14.57;;;11.73;;
11447;SDS011;43755;49.736;8.734;2023-03-01T01:06:41;18.20;;;12.05;;
11447;SDS011;43755;49.736;8.734;2023-03-01T01:08:44;16.08;;;11.60;;
11447;SDS011;43755;49.736;8.734;2023-03-01T01:10:45;17.88;;;11.40;;
11447;SDS011;43755;49.736;8.734;2023-03-01T01:12:47;13.63;;;11.15;;
11447;SDS011;43755;49.736;8.734;2023-03-01T01:14:49;16.38;;;11.80;;
11447;SDS011;43755;49.736;8.734;2023-03-01T01:16:51;15.30;;;11.57;;
11447;SDS011;43755;49.736;8.734;2023-03-01T01:18:53;18.65;;;12.50;;
11447;SDS011;43755;49.736;8.734;2023-03-01T01:20:55;13.65;;;10.45;;
11447;SDS011;43755;49.736;8.734;2023-03-01T01:22:56;16.08;;;11.85;;
11447;SDS011;43755;49.736;8.734;2023-03-01T01:24:58;16.45;;;11.88;;
11447;SDS011;43755;49.736;8.734;2023-03-01T01:26:59;14.32;;;11.27;;
11447;SDS011;43755;49.736;8.734;2023-03-01T01:29:01;15.15;;;11.88;;
11447;SDS011;43755;49.736;8.734;2023-03-01T01:31:04;16.48;;;11.30;;
11447;SDS011;43755;49.736;8.734;2023-03-01T01:33:08;17.50;;;11.80;;
11447;SDS011;43755;49.736;8.734;2023-03-01T01:35:09;16.13;;;11.93;;
11447;SDS011;43755;49.736;8.734;2023-03-01T01:37:10;14.50;;;11.15;;
11447;SDS011;43755;49.736;8.734;2023-03-01T01:39:12;16.15;;;11.77;;
11447;SDS011;43755;49.736;8.734;2023-03-01T01:41:14;14.52;;;11.00;;
11447;SDS011;43755;49.736;8.734;2023-03-01T01:43:19;15.43;;;11.32;;
11447;SDS011;43755;49.736;8.734;2023-03-01T01:45:26;15.73;;;11.65;;
11447;SDS011;43755;49.736;8.734;2023-03-01T01:47:31;16.30;;;11.80;;
11447;SDS011;43755;49.736;8.734;2023-03-01T01:49:35;17.50;;;12.38;;
11447;SDS011;43755;49.736;8.734;2023-03-01T01:51:38;15.27;;;11.77;;
11447;SDS011;43755;49.736;8.734;2023-03-01T01:53:43;17.50;;;12.48;;
11447;SDS011;43755;49.736;8.734;2023-03-01T01:55:51;15.43;;;12.23;;
11447;SDS011;43755;49.736;8.734;2023-03-01T01:57:58;17.80;;;12.68;;
11447;SDS011;43755;49.736;8.734;2023-03-01T02:00:04;18.58;;;12.98;;
11447;SDS011;43755;49.736;8.734;2023-03-01T02:02:08;16.50;;;12.27;;
11447;SDS011;43755;49.736;8.734;2023-03-01T02:04:10;18.27;;;12.63;;
11447;SDS011;43755;49.736;8.734;2023-03-01T02:06:15;16.10;;;12.20;;
11447;SDS011;43755;49.736;8.734;2023-03-01T02:08:20;17.15;;;11.95;;
11447;SDS011;43755;49.736;8.734;2023-03-01T02:10:23;17.73;;;12.80;;
11447;SDS011;43755;49.736;8.734;2023-03-01T02:12:26;14.93;;;11.82;;
11447;SDS011;43755;49.736;8.734;2023-03-01T02:14:28;14.13;;;11.68;;
11447;SDS011;43755;49.736;8.734;2023-03-01T02:16:29;15.50;;;12.05;;
11447;SDS011;43755;49.736;8.734;2023-03-01T02:18:31;15.38;;;12.27;;
11447;SDS011;43755;49.736;8.734;2023-03-01T02:20:33;14.98;;;12.07;;
11447;SDS011;43755;49.736;8.734;2023-03-01T02:22:42;18.08;;;12.00;;
11447;SDS011;43755;49.736;8.734;2023-03-01T02:24:49;18.08;;;12.80;;
11447;SDS011;43755;49.736;8.734;2023-03-01T02:27:02;17.73;;;11.55;;
11447;SDS011;43755;49.736;8.734;2023-03-01T02:29:05;15.75;;;12.02;;
11447;SDS011;43755;49.736;8.734;2023-03-01T02:31:08;17.50;;;12.80;;
11447;SDS011;43755;49.736;8.734;2023-03-01T02:33:28;18.08;;;12.90;;
11447;SDS011;43755;49.736;8.734;2023-03-01T02:35:33;16.55;;;13.45;;
11447;SDS011;43755;49.736;8.734;2023-03-01T02:37:38;17.50;;;12.98;;
11447;SDS011;43755;49.736;8.734;2023-03-01T02:39:42;16.27;;;12.50;;
11447;SDS011;43755;49.736;8.734;2023-03-01T02:41:48;18.02;;;12.50;;
11447;SDS011;43755;49.736;8.734;2023-03-01T02:43:52;17.98;;;11.95;;
11447;SDS011;43755;49.736;8.734;2023-03-01T02:45:57;16.17;;;12.27;;
11447;SDS011;43755;49.736;8.734;2023-03-01T02:48:04;19.33;;;12.60;;
11447;SDS011;43755;49.736;8.734;2023-03-01T02:50:11;16.13;;;12.27;;
11447;SDS011;43755;49.736;8.734;2023-03-01T02:54:46;15.20;;;11.68;;
11447;SDS011;43755;49.736;8.734;2023-03-01T02:56:52;15.75;;;11.85;;
11447;SDS011;43755;49.736;8.734;2023-03-01T02:58:54;14.63;;;12.27;;
11447;SDS011;43755;49.736;8.734;2023-03-01T03:01:01;18.48;;;11.77;;
11447;SDS011;43755;49.736;8.734;2023-03-01T03:03:03;17.00;;;12.07;;
11447;SDS011;43755;49.736;8.734;2023-03-01T03:05:05;15.55;;;12.27;;
11447;SDS011;43755;49.736;8.734;2023-03-01T03:07:09;18.65;;;12.20;;
11447;SDS011;43755;49.736;8.734;2023-03-01T03:09:10;18.45;;;12.45;;
11447;SDS011;43755;49.736;8.734;2023-03-01T03:11:12;17.90;;;12.68;;
11447;SDS011;43755;49.736;8.734;2023-03-01T03:13:14;16.77;;;11.88;;
11447;SDS011;43755;49.736;8.734;2023-03-01T03:15:16;16.23;;;13.00;;
11447;SDS011;43755;49.736;8.734;2023-03-01T03:17:19;16.20;;;12.52;;
11447;SDS011;43755;49.736;8.734;2023-03-01T03:19:21;16.30;;;13.07;;
11447;SDS011;43755;49.736;8.734;2023-03-01T03:21:22;17.02;;;12.38;;
11447;SDS011;43755;49.736;8.734;2023-03-01T03:23:24;16.98;;;12.32;;
11447;SDS011;43755;49.736;8.734;2023-03-01T03:25:26;18.08;;;12.40;;
11447;SDS011;43755;49.736;8.734;2023-03-01T03:27:28;18.02;;;12.55;;
11447;SDS011;43755;49.736;8.734;2023-03-01T03:29:31;18.15;;;12.63;;
11447;SDS011;43755;49.736;8.734;2023-03-01T03:31:33;17.00;;;12.55;;
11447;SDS011;43755;49.736;8.734;2023-03-01T03:33:36;19.90;;;12.80;;
11447;SDS011;43755;49.736;8.734;2023-03-01T03:35:38;14.82;;;12.35;;
11447;SDS011;43755;49.736;8.734;2023-03-01T03:37:42;15.48;;;12.38;;
11447;SDS011;43755;49.736;8.734;2023-03-01T03:40:01;16.48;;;12.40;;
11447;SDS011;43755;49.736;8.734;2023-03-01T03:42:03;15.85;;;12.63;;
11447;SDS011;43755;49.736;8.734;2023-03-01T03:44:04;17.42;;;12.82;;
11447;SDS011;43755;49.736;8.734;2023-03-01T03:46:06;18.08;;;12.40;;
11447;SDS011;43755;49.736;8.734;2023-03-01T03:48:08;16.48;;;12.57;;
11447;SDS011;43755;49.736;8.734;2023-03-01T03:50:12;15.73;;;12.63;;
11447;SDS011;43755;49.736;8.734;2023-03-01T03:52:15;18.67;;;12.60;;
11447;SDS011;43755;49.736;8.734;2023-03-01T03:54:16;17.45;;;12.07;;
11447;SDS011;43755;49.736;8.734;2023-03-01T03:56:18;17.02;;;12.57;;
11447;SDS011;43755;49.736;8.734;2023-03-01T03:58:21;15.63;;;12.23;;
11447;SDS011;43755;49.736;8.734;2023-03-01T04:00:23;17.23;;;12.63;;
11447;SDS011;43755;49.736;8.734;2023-03-01T04:02:25;17.92;;;12.40;;
11447;SDS011;43755;49.736;8.734;2023-03-01T04:04:26;17.98;;;13.23;;
11447;SDS011;43755;49.736;8.734;2023-03-01T04:06:29;18.48;;;12.73;;
11447;SDS011;43755;49.736;8.734;2023-03-01T04:08:31;18.73;;;13.30;;
11447;SDS011;43755;49.736;8.734;2023-03-01T04:10:33;16.75;;;12.68;;
11447;SDS011;43755;49.736;8.734;2023-03-01T04:12:37;19.23;;;13.05;;
11447;SDS011;43755;49.736;8.734;2023-03-01T04:14:38;17.48;;;14.00;;
11447;SDS011;43755;49.736;8.734;2023-03-01T04:16:40;16.75;;;12.95;;
11447;SDS011;43755;49.736;8.734;2023-03-01T04:18:41;16.40;;;12.63;;
11447;SDS011;43755;49.736;8.734;2023-03-01T04:20:43;17.40;;;12.88;;
11447;SDS011;43755;49.736;8.734;2023-03-01T04:22:46;18.55;;;13.95;;
11447;SDS011;43755;49.736;8.734;2023-03-01T04:24:47;18.73;;;13.93;;
11447;SDS011;43755;49.736;8.734;2023-03-01T04:26:49;18.63;;;13.15;;
11447;SDS011;43755;49.736;8.734;2023-03-01T04:28:50;19.02;;;12.95;;
11447;SDS011;43755;49.736;8.734;2023-03-01T04:30:51;18.65;;;13.57;;
11447;SDS011;43755;49.736;8.734;2023-03-01T04:32:53;18.55;;;13.40;;
11447;SDS011;43755;49.736;8.734;2023-03-01T04:34:55;20.17;;;13.70;;
11447;SDS011;43755;49.736;8.734;2023-03-01T04:36:56;16.10;;;12.60;;
11447;SDS011;43755;49.736;8.734;2023-03-01T04:38:59;20.63;;;14.80;;
11447;SDS011;43755;49.736;8.734;2023-03-01T04:41:11;18.75;;;13.43;;
11447;SDS011;43755;49.736;8.734;2023-03-01T04:43:13;18.05;;;13.95;;
11447;SDS011;43755;49.736;8.734;2023-03-01T04:45:15;19.05;;;14.05;;
11447;SDS011;43755;49.736;8.734;2023-03-01T04:47:16;20.05;;;14.13;;
11447;SDS011;43755;49.736;8.734;2023-03-01T04:49:18;17.40;;;13.48;;
11447;SDS011;43755;49.736;8.734;2023-03-01T04:51:19;19.55;;;13.63;;
11447;SDS011;43755;49.736;8.734;2023-03-01T04:53:21;18.13;;;13.35;;
11447;SDS011;43755;49.736;8.734;2023-03-01T04:55:23;17.42;;;13.65;;
11447;SDS011;43755;49.736;8.734;2023-03-01T04:57:25;20.95;;;13.73;;
11447;SDS011;43755;49.736;8.734;2023-03-01T04:59:27;22.23;;;14.48;;
11447;SDS011;43755;49.736;8.734;2023-03-01T05:01:29;19.33;;;13.93;;
11447;SDS011;43755;49.736;8.734;2023-03-01T05:03:30;18.45;;;14.10;;
11447;SDS011;43755;49.736;8.734;2023-03-01T05:05:32;17.52;;;13.70;;
11447;SDS011;43755;49.736;8.734;2023-03-01T05:07:35;20.73;;;14.45;;
11447;SDS011;43755;49.736;8.734;2023-03-01T05:09:36;17.80;;;13.70;;
11447;SDS011;43755;49.736;8.734;2023-03-01T05:11:39;21.27;;;14.20;;
11447;SDS011;43755;49.736;8.734;2023-03-01T05:13:41;17.08;;;13.15;;
11447;SDS011;43755;49.736;8.734;2023-03-01T05:15:43;18.33;;;13.80;;
11447;SDS011;43755;49.736;8.734;2023-03-01T05:17:44;20.13;;;13.82;;
11447;SDS011;43755;49.736;8.734;2023-03-01T05:19:46;17.60;;;13.50;;
11447;SDS011;43755;49.736;8.734;2023-03-01T05:21:47;19.48;;;14.20;;
11447;SDS011;43755;49.736;8.734;2023-03-01T05:24:09;17.85;;;13.70;;
11447;SDS011;43755;49.736;8.734;2023-03-01T05:26:11;19.98;;;13.75;;
11447;SDS011;43755;49.736;8.734;2023-03-01T05:28:14;20.63;;;14.57;;
11447;SDS011;43755;49.736;8.734;2023-03-01T05:30:16;22.30;;;15.38;;
11447;SDS011;43755;49.736;8.734;2023-03-01T05:32:18;17.90;;;13.70;;
11447;SDS011;43755;49.736;8.734;2023-03-01T05:34:22;17.63;;;13.48;;
11447;SDS011;43755;49.736;8.734;2023-03-01T05:36:25;18.48;;;13.60;;
11447;SDS011;43755;49.736;8.734;2023-03-01T05:38:26;20.67;;;14.00;;
11447;SDS011;43755;49.736;8.734;2023-03-01T05:40:28;19.23;;;14.77;;
11447;SDS011;43755;49.736;8.734;2023-03-01T05:42:29;19.27;;;14.07;;
11447;SDS011;43755;49.736;8.734;2023-03-01T05:44:32;19.10;;;13.68;;
11447;SDS011;43755;49.736;8.734;2023-03-01T05:46:33;21.65;;;14.15;;
11447;SDS011;43755;49.736;8.734;2023-03-01T05:48:35;19.08;;;13.48;;
11447;SDS011;43755;49.736;8.734;2023-03-01T05:50:37;22.73;;;14.15;;
11447;SDS011;43755;49.736;8.734;2023-03-01T05:52:40;18.90;;;13.68;;
11447;SDS011;43755;49.736;8.734;2023-03-01T05:54:41;19.10;;;15.00;;
11447;SDS011;43755;49.736;8.734;2023-03-01T05:56:43;18.80;;;14.07;;
11447;SDS011;43755;49.736;8.734;2023-03-01T05:58:45;18.98;;;13.55;;
11447;SDS011;43755;49.736;8.734;2023-03-01T06:00:48;21.15;;;14.23;;
11447;SDS011;43755;49.736;8.734;2023-03-01T06:02:50;19.98;;;14.90;;
11447;SDS011;43755;49.736;8.734;2023-03-01T06:04:51;20.20;;;14.20;;
11447;SDS011;43755;49.736;8.734;2023-03-01T06:06:53;19.45;;;15.13;;
11447;SDS011;43755;49.736;8.734;2023-03-01T06:08:54;18.10;;;13.43;;
11447;SDS011;43755;49.736;8.734;2023-03-01T06:10:55;18.73;;;14.35;;
11447;SDS011;43755;49.736;8.734;2023-03-01T06:12:57;21.52;;;14.68;;
11447;SDS011;43755;49.736;8.734;2023-03-01T06:14:59;20.73;;;14.45;;
11447;SDS011;43755;49.736;8.734;2023-03-01T06:17:02;18.35;;;13.90;;
11447;SDS011;43755;49.736;8.734;2023-03-01T06:19:03;17.85;;;14.35;;
11447;SDS011;43755;49.736;8.734;2023-03-01T06:21:05;18.20;;;14.43;;
11447;SDS011;43755;49.736;8.734;2023-03-01T06:23:08;18.40;;;14.23;;
11447;SDS011;43755;49.736;8.734;2023-03-01T06:25:09;19.80;;;14.85;;
11447;SDS011;43755;49.736;8.734;2023-03-01T06:27:12;19.55;;;14.27;;
11447;SDS011;43755;49.736;8.734;2023-03-01T06:29:13;19.80;;;14.23;;
11447;SDS011;43755;49.736;8.734;2023-03-01T06:31:15;23.42;;;15.88;;
11447;SDS011;43755;49.736;8.734;2023-03-01T06:33:19;18.60;;;14.07;;
11447;SDS011;43755;49.736;8.734;2023-03-01T06:35:21;20.15;;;14.98;;
11447;SDS011;43755;49.736;8.734;2023-03-01T06:37:23;21.20;;;14.27;;
11447;SDS011;43755;49.736;8.734;2023-03-01T06:39:24;20.75;;;14.73;;
11447;SDS011;43755;49.736;8.734;2023-03-01T06:41:26;19.40;;;14.05;;
11447;SDS011;43755;49.736;8.734;2023-03-01T06:43:27;19.27;;;13.98;;
11447;SDS011;43755;49.736;8.734;2023-03-01T06:45:28;18.33;;;14.02;;
11447;SDS011;43755;49.736;8.734;2023-03-01T06:47:30;21.23;;;14.15;;
11447;SDS011;43755;49.736;8.734;2023-03-01T06:49:34;19.48;;;13.77;;
11447;SDS011;43755;49.736;8.734;2023-03-01T06:51:35;18.95;;;14.75;;
11447;SDS011;43755;49.736;8.734;2023-03-01T06:53:37;18.20;;;14.27;;
11447;SDS011;43755;49.736;8.734;2023-03-01T06:55:39;20.85;;;14.80;;
11447;SDS011;43755;49.736;8.734;2023-03-01T06:57:40;18.52;;;14.52;;
11447;SDS011;43755;49.736;8.734;2023-03-01T06:59:41;21.73;;;13.93;;
11447;SDS011;43755;49.736;8.734;2023-03-01T07:01:43;20.48;;;14.00;;
11447;SDS011;43755;49.736;8.734;2023-03-01T07:03:44;18.92;;;14.15;;
11447;SDS011;43755;49.736;8.734;2023-03-01T07:05:49;21.38;;;15.48;;
11447;SDS011;43755;49.736;8.734;2023-03-01T07:07:52;19.95;;;14.80;;
11447;SDS011;43755;49.736;8.734;2023-03-01T07:09:55;22.00;;;15.38;;
11447;SDS011;43755;49.736;8.734;2023-03-01T07:11:56;21.58;;;14.48;;
11447;SDS011;43755;49.736;8.734;2023-03-01T07:13:58;17.67;;;14.13;;
11447;SDS011;43755;49.736;8.734;2023-03-01T07:16:00;20.63;;;15.13;;
11447;SDS011;43755;49.736;8.734;2023-03-01T07:18:01;23.20;;;14.95;;
11447;SDS011;43755;49.736;8.734;2023-03-01T07:20:03;19.17;;;14.52;;
11447;SDS011;43755;49.736;8.734;2023-03-01T07:22:06;20.45;;;14.55;;
11447;SDS011;43755;49.736;8.734;2023-03-01T07:24:09;20.23;;;13.68;;
11447;SDS011;43755;49.736;8.734;2023-03-01T07:26:11;20.40;;;14.48;;
11447;SDS011;43755;49.736;8.734;2023-03-01T07:28:12;21.15;;;14.95;;
11447;SDS011;43755;49.736;8.734;2023-03-01T07:30:14;19.35;;;15.13;;
11447;SDS011;43755;49.736;8.734;2023-03-01T07:32:15;20.63;;;14.75;;
11447;SDS011;43755;49.736;8.734;2023-03-01T07:34:17;20.65;;;14.77;;
11447;SDS011;43755;49.736;8.734;2023-03-01T07:36:18;19.27;;;14.45;;
11447;SDS011;43755;49.736;8.734;2023-03-01T07:38:21;19.15;;;13.70;;
11447;SDS011;43755;49.736;8.734;2023-03-01T07:40:23;18.65;;;13.90;;
11447;SDS011;43755;49.736;8.734;2023-03-01T07:42:24;19.88;;;14.57;;
11447;SDS011;43755;49.736;8.734;2023-03-01T07:44:25;19.23;;;14.45;;
11447;SDS011;43755;49.736;8.734;2023-03-01T07:46:28;19.08;;;14.30;;
11447;SDS011;43755;49.736;8.734;2023-03-01T07:48:29;19.20;;;14.40;;
11447;SDS011;43755;49.736;8.734;2023-03-01T07:50:32;18.58;;;14.07;;
11447;SDS011;43755;49.736;8.734;2023-03-01T07:52:34;19.27;;;13.90;;
11447;SDS011;43755;49.736;8.734;2023-03-01T07:54:36;19.77;;;14.68;;
11447;SDS011;43755;49.736;8.734;2023-03-01T07:56:38;17.83;;;14.43;;
11447;SDS011;43755;49.736;8.734;2023-03-01T07:58:41;21.00;;;13.95;;
11447;SDS011;43755;49.736;8.734;2023-03-01T08:00:43;19.38;;;14.43;;
11447;SDS011;43755;49.736;8.734;2023-03-01T08:02:45;17.52;;;13.48;;
11447;SDS011;43755;49.736;8.734;2023-03-01T08:04:46;19.48;;;14.20;;
11447;SDS011;43755;49.736;8.734;2023-03-01T08:06:48;18.25;;;13.68;;
11447;SDS011;43755;49.736;8.734;2023-03-01T08:08:49;19.80;;;14.57;;
11447;SDS011;43755;49.736;8.734;2023-03-01T08:10:52;21.25;;;14.60;;
11447;SDS011;43755;49.736;8.734;2023-03-01T08:12:53;19.75;;;14.38;;
11447;SDS011;43755;49.736;8.734;2023-03-01T08:14:55;19.77;;;14.05;;
11447;SDS011;43755;49.736;8.734;2023-03-01T08:16:56;18.70;;;14.38;;
11447;SDS011;43755;49.736;8.734;2023-03-01T08:19:02;18.30;;;13.82;;
11447;SDS011;43755;49.736;8.734;2023-03-01T08:21:05;18.13;;;13.73;;
11447;SDS011;43755;49.736;8.734;2023-03-01T08:23:07;18.55;;;13.50;;
11447;SDS011;43755;49.736;8.734;2023-03-01T08:25:09;16.92;;;14.00;;
11447;SDS011;43755;49.736;8.734;2023-03-01T08:27:11;17.15;;;13.48;;
11447;SDS011;43755;49.736;8.734;2023-03-01T08:29:13;19.52;;;14.05;;
11447;SDS011;43755;49.736;8.734;2023-03-01T08:31:16;17.75;;;13.88;;
11447;SDS011;43755;49.736;8.734;2023-03-01T08:33:19;21.52;;;14.10;;
11447;SDS011;43755;49.736;8.734;2023-03-01T08:35:20;17.05;;;14.02;;
11447;SDS011;43755;49.736;8.734;2023-03-01T08:37:22;19.27;;;14.00;;
11447;SDS011;43755;49.736;8.734;2023-03-01T08:39:23;22.17;;;14.55;;
11447;SDS011;43755;49.736;8.734;2023-03-01T08:41:25;19.52;;;13.95;;
11447;SDS011;43755;49.736;8.734;2023-03-01T08:43:29;18.25;;;14.15;;
11447;SDS011;43755;49.736;8.734;2023-03-01T08:45:30;22.08;;;14.48;;
11447;SDS011;43755;49.736;8.734;2023-03-01T08:47:32;18.85;;;13.90;;
11447;SDS011;43755;49.736;8.734;2023-03-01T08:49:34;17.65;;;14.35;;
11447;SDS011;43755;49.736;8.734;2023-03-01T08:51:35;22.25;;;14.98;;
11447;SDS011;43755;49.736;8.734;2023-03-01T08:53:37;19.88;;;14.35;;
11447;SDS011;43755;49.736;8.734;2023-03-01T08:55:39;21.58;;;14.57;;
11447;SDS011;43755;49.736;8.734;2023-03-01T08:57:40;18.75;;;13.90;;
11447;SDS011;43755;49.736;8.734;2023-03-01T08:59:43;19.52;;;14.20;;
11447;SDS011;43755;49.736;8.734;2023-03-01T09:01:44;18.08;;;14.38;;
11447;SDS011;43755;49.736;8.734;2023-03-01T09:03:46;21.58;;;14.88;;
11447;SDS011;43755;49.736;8.734;2023-03-01T09:05:47;25.25;;;14.88;;
11447;SDS011;43755;49.736;8.734;2023-03-01T09:07:50;19.15;;;14.90;;
11447;SDS011;43755;49.736;8.734;2023-03-01T09:09:51;17.60;;;14.43;;
11447;SDS011;43755;49.736;8.734;2023-03-01T09:11:54;19.58;;;14.30;;
11447;SDS011;43755;49.736;8.734;2023-03-01T09:13:55;17.73;;;14.15;;
11447;SDS011;43755;49.736;8.734;2023-03-01T09:15:58;19.83;;;14.75;;
11447;SDS011;43755;49.736;8.734;2023-03-01T09:18:00;17.15;;;13.93;;
11447;SDS011;43755;49.736;8.734;2023-03-01T09:20:01;17.80;;;14.80;;
11447;SDS011;43755;49.736;8.734;2023-03-01T09:22:05;19.42;;;14.65;;
11447;SDS011;43755;49.736;8.734;2023-03-01T09:24:08;17.92;;;14.75;;
11447;SDS011;43755;49.736;8.734;2023-03-01T09:26:14;18.67;;;14.13;;
11447;SDS011;43755;49.736;8.734;2023-03-01T09:28:19;19.83;;;14.57;;
11447;SDS011;43755;49.736;8.734;2023-03-01T09:30:23;18.05;;;14.38;;
11447;SDS011;43755;49.736;8.734;2023-03-01T09:32:26;18.77;;;13.98;;
11447;SDS011;43755;49.736;8.734;2023-03-01T09:34:27;18.42;;;14.27;;
11447;SDS011;43755;49.736;8.734;2023-03-01T09:36:29;18.48;;;14.50;;
11447;SDS011;43755;49.736;8.734;2023-03-01T09:38:30;17.10;;;13.57;;
11447;SDS011;43755;49.736;8.734;2023-03-01T09:40:32;23.20;;;14.15;;
11447;SDS011;43755;49.736;8.734;2023-03-01T09:42:34;18.40;;;13.88;;
11447;SDS011;43755;49.736;8.734;2023-03-01T09:44:47;19.63;;;14.55;;
11447;SDS011;43755;49.736;8.734;2023-03-01T09:46:52;19.45;;;14.98;;
11447;SDS011;43755;49.736;8.734;2023-03-01T09:48:56;17.65;;;15.02;;
11447;SDS011;43755;49.736;8.734;2023-03-01T09:51:00;18.80;;;14.98;;
11447;SDS011;43755;49.736;8.734;2023-03-01T09:53:10;17.85;;;14.38;;
11447;SDS011;43755;49.736;8.734;2023-03-01T09:55:15;22.33;;;15.25;;
11447;SDS011;43755;49.736;8.734;2023-03-01T09:57:19;17.92;;;14.63;;
11447;SDS011;43755;49.736;8.734;2023-03-01T09:59:27;19.85;;;14.80;;
11447;SDS011;43755;49.736;8.734;2023-03-01T10:01:35;17.63;;;14.68;;
11447;SDS011;43755;49.736;8.734;2023-03-01T10:03:42;19.83;;;14.68;;
11447;SDS011;43755;49.736;8.734;2023-03-01T10:05:50;16.15;;;13.77;;
11447;SDS011;43755;49.736;8.734;2023-03-01T10:08:00;18.08;;;14.55;;
11447;SDS011;43755;49.736;8.734;2023-03-01T10:10:16;19.40;;;15.35;;
11447;SDS011;43755;49.736;8.734;2023-03-01T10:12:25;20.33;;;14.93;;
11447;SDS011;43755;49.736;8.734;2023-03-01T10:14:32;19.65;;;15.10;;
11447;SDS011;43755;49.736;8.734;2023-03-01T10:16:39;19.80;;;15.05;;
11447;SDS011;43755;49.736;8.734;2023-03-01T10:18:45;17.90;;;14.75;;
11447;SDS011;43755;49.736;8.734;2023-03-01T10:20:55;17.02;;;13.95;;
11447;SDS011;43755;49.736;8.734;2023-03-01T10:22:59;15.73;;;13.98;;
11447;SDS011;43755;49.736;8.734;2023-03-01T10:25:02;18.55;;;14.70;;
11447;SDS011;43755;49.736;8.734;2023-03-01T10:27:05;21.25;;;14.98;;
11447;SDS011;43755;49.736;8.734;2023-03-01T10:29:11;17.23;;;14.00;;
11447;SDS011;43755;49.736;8.734;2023-03-01T10:31:14;18.95;;;14.52;;
11447;SDS011;43755;49.736;8.734;2023-03-01T10:33:20;17.40;;;13.82;;
11447;SDS011;43755;49.736;8.734;2023-03-01T10:35:25;16.85;;;14.45;;
11447;SDS011;43755;49.736;8.734;2023-03-01T10:37:30;18.33;;;13.80;;
11447;SDS011;43755;49.736;8.734;2023-03-01T10:39:32;16.10;;;13.73;;
11447;SDS011;43755;49.736;8.734;2023-03-01T10:41:33;18.63;;;14.27;;
11447;SDS011;43755;49.736;8.734;2023-03-01T10:43:43;19.73;;;13.68;;
11447;SDS011;43755;49.736;8.734;2023-03-01T10:45:46;17.33;;;14.00;;
11447;SDS011;43755;49.736;8.734;2023-03-01T10:47:48;17.70;;;13.63;;
11447;SDS011;43755;49.736;8.734;2023-03-01T10:50:05;19.13;;;14.00;;
11447;SDS011;43755;49.736;8.734;2023-03-01T10:52:23;17.30;;;14.25;;
11447;SDS011;43755;49.736;8.734;2023-03-01T10:54:29;18.27;;;13.32;;
11447;SDS011;43755;49.736;8.734;2023-03-01T10:56:41;17.30;;;14.52;;
11447;SDS011;43755;49.736;8.734;2023-03-01T10:58:56;16.20;;;13.85;;
11447;SDS011;43755;49.736;8.734;2023-03-01T11:01:00;15.18;;;12.65;;
11447;SDS011;43755;49.736;8.734;2023-03-01T11:03:04;16.05;;;13.05;;
11447;SDS011;43755;49.736;8.734;2023-03-01T11:05:16;15.63;;;13.02;;
11447;SDS011;43755;49.736;8.734;2023-03-01T11:07:21;14.93;;;13.27;;
11447;SDS011;43755;49.736;8.734;2023-03-01T11:09:22;15.68;;;13.50;;
11447;SDS011;43755;49.736;8.734;2023-03-01T11:11:31;18.80;;;13.50;;
11447;SDS011;43755;49.736;8.734;2023-03-01T11:13:33;16.27;;;13.00;;
11447;SDS011;43755;49.736;8.734;2023-03-01T11:15:36;17.10;;;13.52;;
11447;SDS011;43755;49.736;8.734;2023-03-01T11:17:37;19.98;;;13.68;;
11447;SDS011;43755;49.736;8.734;2023-03-01T11:19:39;17.00;;;13.32;;
11447;SDS011;43755;49.736;8.734;2023-03-01T11:21:41;14.32;;;12.23;;
11447;SDS011;43755;49.736;8.734;2023-03-01T11:23:45;16.48;;;12.75;;
11447;SDS011;43755;49.736;8.734;2023-03-01T11:25:47;15.85;;;13.25;;
11447;SDS011;43755;49.736;8.734;2023-03-01T11:27:54;18.25;;;12.82;;
11447;SDS011;43755;49.736;8.734;2023-03-01T11:30:00;16.60;;;12.85;;
11447;SDS011;43755;49.736;8.734;2023-03-01T11:32:07;16.20;;;13.52;;
11447;SDS011;43755;49.736;8.734;2023-03-01T11:34:12;15.63;;;12.77;;
11447;SDS011;43755;49.736;8.734;2023-03-01T11:36:19;18.45;;;14.00;;
11447;SDS011;43755;49.736;8.734;2023-03-01T11:38:29;15.57;;;12.82;;
11447;SDS011;43755;49.736;8.734;2023-03-01T11:40:38;14.50;;;12.40;;
11447;SDS011;43755;49.736;8.734;2023-03-01T11:42:50;16.13;;;12.93;;
11447;SDS011;43755;49.736;8.734;2023-03-01T11:45:05;15.35;;;12.73;;
11447;SDS011;43755;49.736;8.734;2023-03-01T11:47:14;16.70;;;13.57;;
11447;SDS011;43755;49.736;8.734;2023-03-01T11:49:33;14.95;;;13.25;;
11447;SDS011;43755;49.736;8.734;2023-03-01T11:51:48;17.05;;;13.23;;
11447;SDS011;43755;49.736;8.734;2023-03-01T11:54:00;16.25;;;13.13;;
11447;SDS011;43755;49.736;8.734;2023-03-01T11:56:09;14.27;;;11.98;;
11447;SDS011;43755;49.736;8.734;2023-03-01T11:58:32;15.10;;;12.73;;
11447;SDS011;43755;49.736;8.734;2023-03-01T12:00:50;16.40;;;12.25;;
11447;SDS011;43755;49.736;8.734;2023-03-01T12:03:25;14.27;;;12.18;;
11447;SDS011;43755;49.736;8.734;2023-03-01T12:05:39;15.73;;;12.20;;